VTBS/BKK METAR and TAF weather

Enter ICAO airport designator
Station Type Date Time Source
VTBS METAR 2019/06/18 12:30 UTC NOAA

VTBS 181230Z 20009KT 9999 FEW020 30/24 Q1006 NOSIG


Station Type Date Time Source
VTBS Decoded METAR 2019/06/18 12:30 UTC NOAA

Chon Buri, Thailand (VTBS) 13-22N 100-59E 2M
Jun 18, 2019 - 08:30 AM EDT / 2019.06.18 1230 UTC
Wind: from the SSW (200 degrees) at 10 MPH (9 KT):0
Visibility: greater than 7 mile(s):0
Sky conditions: mostly clear
Temperature: 86 F (30 C)
Heat index: 95.0 F (35.0 C):1
Dew Point: 75 F (24 C)
Relative Humidity: 70%
Pressure (altimeter): 29.71 in. Hg (1006 hPa)
ob: VTBS 181230Z 20009KT 9999 FEW020 30/24 Q1006 NOSIG
cycle: 12

Station Type Date Time Source
VTBS TAF 2019/06/18 12:00 UTC NOAA

TAF VTBS 181100Z 1812/1918 19010KT 9999 FEW020 SCT040
TEMPO 1813/1817 24010KT 5000 TSRA FEW018CB SCT030 BKN080
TEMPO 1902/1908 24010KT 5000 TSRA FEW018CB SCT030 BKN080

Example: see airport list